Aysenur — ERJR — position and weather

sailwx.info

Track history (hours):
 
Tides and Currents Weather Stations Pressure Air Temp Water Temp Dewpoint Dewpoint Depression Visibility Wind Speed Wind Dir Waves Ship Positions

Aysenur

Last reported at 2014-Jul-14 11:29 UTC. Time now 2014-Jul-24 03:58 UTC.
Position N 40°58' E 028°56'.
Warning: this ship's position is 9 days out of date.

Length 81 m; draft 4.2 m.

Type: Cargo ship. MMSI: 214181018.

Date/timePositionNaut miles runAvg speedWind from/ knotsBaromVisibWave heightAir tempDewpointWater temp
2014-Jul-14 11:29N 40°58' E 028°56'6 6.2
2014-Jul-14 10:33N 40°52' E 028°53'96 9.3
2014-Jul-14 00:13N 40°28' E 026°51'6 9.2
2014-Jul-13 23:33N 40°25' E 026°44'33 8.3
2014-Jul-13 19:32N 40°01' E 026°13'7 7.5
2014-Jul-13 18:33N 39°56' E 026°07'3 3.3
2014-Jul-13 17:33N 39°54' E 026°03'1 0.5
2014-Jul-13 16:29N 39°54' E 026°04'7 7.5
2014-Jul-13 15:33N 39°47' E 026°05'46 8.8
2014-Jul-13 10:21N 39°02' E 025°52'80 9.1
2014-Jul-13 01:33N 37°47' E 026°28'14 9.9
2014-Jul-13 00:09N 37°36' E 026°38'7 9.8
2014-Jul-12 23:28N 37°30' E 026°44'9 9.4
2014-Jul-12 22:32N 37°24' E 026°51'9 9.5
2014-Jul-12 21:33N 37°15' E 026°56'10 9.6
2014-Jul-12 20:33N 37°06' E 027°01'289 8.6
2014-Jul-11 11:04N 35°59' E 032°51'  
2014-Jul-08 00:08N 33°19' E 034°45'6 9.6
2014-Jul-07 23:33N 33°14' E 034°44'9 9.5
2014-Jul-07 22:34N 33°05' E 034°41'21 9.5
2014-Jul-07 20:23N 32°44' E 034°38'8 9.2
2014-Jul-07 19:33N 32°37' E 034°39'9 9.2
2014-Jul-07 18:33N 32°27' E 034°38'9 9.2
2014-Jul-07 17:32N 32°18' E 034°36'9 9.2
2014-Jul-07 16:33N 32°09' E 034°33'  
Track history (hours):
 
Tides and Currents Weather Stations Pressure Air Temp Water Temp Dewpoint Dewpoint Depression Visibility Wind Speed Wind Dir Waves Ship Positions

Aysenur

Last reported at 2014-Jul-14 11:29 UTC. Time now 2014-Jul-24 03:58 UTC.
Position N 40°58' E 028°56'.
Warning: this ship's position is 9 days out of date.

Length 81 m; draft 4.2 m.

Type: Cargo ship. MMSI: 214181018.

Date/timePositionNaut miles runAvg speedWind from/ knotsBaromVisibWave heightAir tempDewpointWater temp
2014-Jul-14 11:29N 40°58' E 028°56'6 6.2
2014-Jul-14 10:33N 40°52' E 028°53'96 9.3
2014-Jul-14 00:13N 40°28' E 026°51'6 9.2
2014-Jul-13 23:33N 40°25' E 026°44'33 8.3
2014-Jul-13 19:32N 40°01' E 026°13'7 7.5
2014-Jul-13 18:33N 39°56' E 026°07'3 3.3
2014-Jul-13 17:33N 39°54' E 026°03'1 0.5
2014-Jul-13 16:29N 39°54' E 026°04'7 7.5
2014-Jul-13 15:33N 39°47' E 026°05'46 8.8
2014-Jul-13 10:21N 39°02' E 025°52'80 9.1
2014-Jul-13 01:33N 37°47' E 026°28'14 9.9
2014-Jul-13 00:09N 37°36' E 026°38'7 9.8
2014-Jul-12 23:28N 37°30' E 026°44'9 9.4
2014-Jul-12 22:32N 37°24' E 026°51'9 9.5
2014-Jul-12 21:33N 37°15' E 026°56'10 9.6
2014-Jul-12 20:33N 37°06' E 027°01'289 8.6
2014-Jul-11 11:04N 35°59' E 032°51'  
2014-Jul-08 00:08N 33°19' E 034°45'6 9.6
2014-Jul-07 23:33N 33°14' E 034°44'9 9.5
2014-Jul-07 22:34N 33°05' E 034°41'21 9.5
2014-Jul-07 20:23N 32°44' E 034°38'8 9.2
2014-Jul-07 19:33N 32°37' E 034°39'9 9.2
2014-Jul-07 18:33N 32°27' E 034°38'9 9.2
2014-Jul-07 17:32N 32°18' E 034°36'9 9.2
2014-Jul-07 16:33N 32°09' E 034°33'  

Dump ship's entire track history